createdAt,value
2022-08-26T00:01:54.738Z,55.70
2022-08-26T00:04:23.565Z,56.05
2022-08-26T00:06:51.787Z,56.26
2022-08-26T00:09:20.129Z,56.17
2022-08-26T00:11:48.159Z,55.59
2022-08-26T00:14:16.718Z,55.40
2022-08-26T00:16:47.908Z,55.49
2022-08-26T00:19:18.356Z,55.88
2022-08-26T00:21:46.182Z,55.65
2022-08-26T00:24:16.109Z,55.40
2022-08-26T00:26:43.830Z,56.09
2022-08-26T00:29:13.068Z,55.91
2022-08-26T00:31:41.381Z,56.31
2022-08-26T00:34:11.205Z,56.00
2022-08-26T00:36:41.227Z,56.58
2022-08-26T00:39:09.315Z,56.25
2022-08-26T00:41:39.153Z,56.63
2022-08-26T00:44:08.639Z,56.23
2022-08-26T00:46:40.033Z,56.07
2022-08-26T00:49:17.896Z,56.29
2022-08-26T00:51:51.726Z,56.67
2022-08-26T00:54:22.020Z,56.71
2022-08-26T00:56:55.575Z,57.69
2022-08-26T00:59:24.815Z,57.58
2022-08-26T01:01:53.270Z,57.68
2022-08-26T01:04:23.683Z,58.15
2022-08-26T01:06:55.711Z,58.29
2022-08-26T01:09:24.219Z,58.32
2022-08-26T01:11:56.615Z,58.17
2022-08-26T01:14:27.425Z,58.29
2022-08-26T01:16:55.096Z,57.69
2022-08-26T01:19:26.196Z,58.20
2022-08-26T01:21:58.858Z,59.16
2022-08-26T01:24:29.884Z,58.93
2022-08-26T01:27:01.617Z,58.74
2022-08-26T01:29:31.880Z,58.62
2022-08-26T01:32:00.208Z,58.85
2022-08-26T01:34:32.081Z,59.21
2022-08-26T01:37:05.532Z,59.20
2022-08-26T01:39:37.219Z,59.34
2022-08-26T01:42:10.385Z,59.11
2022-08-26T01:44:44.387Z,59.60
2022-08-26T01:47:14.036Z,60.52
2022-08-26T01:49:44.056Z,60.44
2022-08-26T01:52:15.159Z,60.39
2022-08-26T01:54:46.366Z,60.62
2022-08-26T01:57:21.053Z,60.43
2022-08-26T01:59:50.243Z,60.72
2022-08-26T02:02:18.344Z,60.71
2022-08-26T02:04:53.113Z,60.31
2022-08-26T02:07:23.499Z,60.27
2022-08-26T02:09:56.787Z,60.38
2022-08-26T02:12:27.124Z,61.47
2022-08-26T02:14:59.159Z,61.12
2022-08-26T02:17:35.942Z,61.51
2022-08-26T02:20:04.770Z,61.35
2022-08-26T02:22:34.268Z,61.36
2022-08-26T02:25:13.274Z,61.08
2022-08-26T02:27:41.928Z,61.07
2022-08-26T02:30:13.983Z,60.96
2022-08-26T02:32:41.923Z,61.23
2022-08-26T02:35:12.497Z,61.37
2022-08-26T02:37:41.870Z,60.54
2022-08-26T02:40:14.192Z,60.69
2022-08-26T02:42:42.806Z,61.10
2022-08-26T02:45:11.681Z,61.11
2022-08-26T02:47:39.613Z,61.47
2022-08-26T02:50:08.188Z,61.36
2022-08-26T02:52:35.868Z,61.49
2022-08-26T02:55:05.911Z,61.18
2022-08-26T02:57:35.026Z,61.02
2022-08-26T03:00:03.084Z,60.95
2022-08-26T03:02:30.800Z,60.77
2022-08-26T03:05:02.275Z,60.64
2022-08-26T03:07:30.382Z,61.31
2022-08-26T03:09:58.885Z,61.13
2022-08-26T03:12:26.529Z,60.77
2022-08-26T03:14:56.197Z,61.47
2022-08-26T03:17:24.086Z,61.04
2022-08-26T03:19:57.182Z,61.48
2022-08-26T03:22:26.136Z,61.34
2022-08-26T03:24:54.947Z,61.52
2022-08-26T03:27:22.583Z,60.43
2022-08-26T03:30:08.148Z,60.64
2022-08-26T03:32:41.555Z,60.65
2022-08-26T03:35:09.729Z,60.86
2022-08-26T03:37:37.481Z,61.00
2022-08-26T03:40:10.391Z,60.86
2022-08-26T03:42:39.200Z,60.79
2022-08-26T03:45:10.405Z,61.00
2022-08-26T03:47:38.244Z,61.37
2022-08-26T03:50:10.238Z,61.14
2022-08-26T03:52:43.026Z,61.16
2022-08-26T03:55:12.047Z,61.61
2022-08-26T03:57:40.076Z,61.69
2022-08-26T04:00:14.363Z,61.53
2022-08-26T04:02:48.763Z,61.99
2022-08-26T04:05:20.356Z,61.83
2022-08-26T04:07:48.657Z,62.44
2022-08-26T04:10:20.192Z,62.21
2022-08-26T04:12:48.324Z,61.76
2022-08-26T04:15:17.764Z,61.46
2022-08-26T04:17:45.905Z,61.92
2022-08-26T04:20:16.193Z,61.33
2022-08-26T04:22:45.400Z,61.00
2022-08-26T04:25:13.906Z,61.05
2022-08-26T04:27:41.673Z,61.00
2022-08-26T04:30:10.646Z,60.94
2022-08-26T04:32:38.580Z,61.08
2022-08-26T04:35:07.126Z,61.16
2022-08-26T04:37:37.038Z,61.52
2022-08-26T04:40:10.054Z,61.80
2022-08-26T04:42:37.801Z,62.40
2022-08-26T04:45:10.419Z,61.92
2022-08-26T04:47:40.777Z,61.75
2022-08-26T04:50:09.672Z,61.51
2022-08-26T04:52:39.108Z,61.27
2022-08-26T04:55:09.322Z,60.72
2022-08-26T04:57:37.153Z,60.79
2022-08-26T05:00:06.709Z,60.77
2022-08-26T05:02:34.597Z,60.55
2022-08-26T05:05:02.599Z,60.54
2022-08-26T05:07:31.237Z,61.02
2022-08-26T05:10:00.272Z,61.71
2022-08-26T05:12:29.614Z,61.76
2022-08-26T05:14:57.467Z,61.49
2022-08-26T05:17:25.134Z,61.60
2022-08-26T05:19:52.765Z,61.17
2022-08-26T05:22:21.049Z,60.85
2022-08-26T05:24:48.818Z,61.00
2022-08-26T05:27:16.766Z,61.28
2022-08-26T05:29:46.907Z,61.22
2022-08-26T05:32:22.441Z,60.80
2022-08-26T05:34:55.361Z,60.71
2022-08-26T05:37:23.056Z,59.94
2022-08-26T05:39:51.492Z,59.91
2022-08-26T05:42:19.836Z,60.00
2022-08-26T05:44:55.619Z,60.04
2022-08-26T05:47:24.191Z,59.58
2022-08-26T05:49:51.977Z,60.02
2022-08-26T05:52:20.029Z,59.23
2022-08-26T05:54:47.853Z,59.74
2022-08-26T05:57:16.005Z,58.94
2022-08-26T05:59:46.309Z,59.63
2022-08-26T06:02:15.304Z,59.01
2022-08-26T06:04:43.377Z,58.63
2022-08-26T06:07:12.074Z,58.47
2022-08-26T06:09:41.466Z,57.87
2022-08-26T06:12:09.652Z,58.32
2022-08-26T06:14:37.294Z,57.72
2022-08-26T06:17:04.960Z,57.94
2022-08-26T06:19:34.423Z,57.95
2022-08-26T06:22:23.416Z,57.74
2022-08-26T06:25:09.037Z,57.05
2022-08-26T06:27:37.786Z,56.82
2022-08-26T06:30:06.447Z,56.97
2022-08-26T06:32:34.144Z,56.63
2022-08-26T06:35:03.500Z,56.76
2022-08-26T06:37:31.223Z,56.95
2022-08-26T06:40:00.739Z,56.60
2022-08-26T06:42:28.511Z,56.21
2022-08-26T06:44:56.625Z,56.60
2022-08-26T06:47:24.439Z,57.21
2022-08-26T06:49:52.615Z,55.75
2022-08-26T06:52:24.368Z,54.38
2022-08-26T06:54:52.353Z,53.67
2022-08-26T06:57:20.739Z,52.80
2022-08-26T06:59:51.096Z,51.85
2022-08-26T07:02:19.531Z,51.35
2022-08-26T07:04:48.519Z,50.58
2022-08-26T07:07:21.964Z,48.13
2022-08-26T07:09:52.440Z,45.94
2022-08-26T07:12:20.503Z,44.55
2022-08-26T07:14:48.483Z,43.51
2022-08-26T07:17:16.332Z,43.71
2022-08-26T07:19:44.245Z,45.66
2022-08-26T07:22:12.003Z,45.37
2022-08-26T07:24:42.569Z,44.69
2022-08-26T07:27:15.652Z,44.11
2022-08-26T07:29:44.787Z,44.45
2022-08-26T07:32:14.485Z,42.90
2022-08-26T07:34:43.281Z,42.06
2022-08-26T07:37:11.556Z,41.33
2022-08-26T07:39:40.489Z,39.77
2022-08-26T07:42:11.698Z,38.84
2022-08-26T07:44:41.490Z,39.03
2022-08-26T07:47:10.166Z,39.54
2022-08-26T07:49:47.216Z,35.94
2022-08-26T07:52:25.320Z,37.00
2022-08-26T07:54:54.352Z,38.92
2022-08-26T07:57:22.042Z,41.63
2022-08-26T07:59:53.964Z,41.46
2022-08-26T08:02:23.919Z,42.80
2022-08-26T08:04:52.240Z,41.81
2022-08-26T08:07:20.207Z,39.11
2022-08-26T08:09:49.679Z,38.81
2022-08-26T08:12:17.988Z,38.62
2022-08-26T08:14:46.842Z,39.93
2022-08-26T08:17:17.491Z,39.66
2022-08-26T08:19:46.875Z,40.26
2022-08-26T08:22:17.116Z,40.18
2022-08-26T08:24:45.864Z,38.73
2022-08-26T08:27:22.834Z,39.37
2022-08-26T08:29:54.093Z,41.14
2022-08-26T08:32:23.711Z,41.01
2022-08-26T08:34:51.669Z,39.38
2022-08-26T08:37:21.320Z,38.78
2022-08-26T08:39:49.156Z,40.40
2022-08-26T08:42:37.719Z,39.51
2022-08-26T08:45:10.205Z,39.92
2022-08-26T08:47:43.859Z,41.76
2022-08-26T08:50:22.706Z,41.68
2022-08-26T08:52:56.172Z,42.30
2022-08-26T08:55:29.526Z,42.96
2022-08-26T08:58:06.582Z,43.00
2022-08-26T09:00:43.727Z,42.35
2022-08-26T09:03:25.429Z,41.90
2022-08-26T09:05:55.422Z,42.14
2022-08-26T09:08:29.365Z,43.70
2022-08-26T09:10:59.519Z,42.72
2022-08-26T09:13:29.046Z,41.64
2022-08-26T09:16:08.292Z,42.99
2022-08-26T09:18:54.130Z,44.33
2022-08-26T09:21:25.299Z,45.08
2022-08-26T09:23:55.362Z,45.49
2022-08-26T09:26:29.671Z,43.98
2022-08-26T09:29:00.564Z,43.54
2022-08-26T09:31:31.134Z,44.81
2022-08-26T09:34:17.528Z,44.85
2022-08-26T09:36:47.291Z,43.39
2022-08-26T09:39:34.711Z,42.70
2022-08-26T09:42:11.505Z,42.36
2022-08-26T09:44:57.860Z,43.81
2022-08-26T09:47:30.063Z,43.28
2022-08-26T09:50:04.216Z,42.34
2022-08-26T09:52:37.343Z,41.67
2022-08-26T09:55:13.634Z,41.45
2022-08-26T09:57:52.457Z,40.49
2022-08-26T10:00:31.430Z,39.74
2022-08-26T10:03:01.148Z,39.13
2022-08-26T10:05:36.936Z,39.75
2022-08-26T10:08:20.858Z,40.35
2022-08-26T10:10:53.070Z,40.74
2022-08-26T10:13:26.881Z,40.10
2022-08-26T10:16:10.847Z,39.38
2022-08-26T10:18:43.013Z,39.07
2022-08-26T10:21:18.039Z,38.06
2022-08-26T10:23:50.953Z,38.47
2022-08-26T10:26:26.278Z,38.43
2022-08-26T10:28:58.362Z,38.82
2022-08-26T10:31:38.274Z,40.11
2022-08-26T10:34:09.367Z,40.25
2022-08-26T10:37:14.896Z,39.46
2022-08-26T10:39:46.171Z,39.55
2022-08-26T10:42:22.272Z,39.66
2022-08-26T10:44:54.037Z,39.69
2022-08-26T10:47:32.484Z,40.49
2022-08-26T10:50:03.250Z,39.54
2022-08-26T10:52:48.396Z,39.63
2022-08-26T10:55:20.799Z,39.95
2022-08-26T10:57:58.249Z,40.00
2022-08-26T11:00:49.110Z,39.50
2022-08-26T11:03:31.439Z,40.15
2022-08-26T11:06:21.054Z,41.15
2022-08-26T11:08:50.988Z,38.84
2022-08-26T11:11:49.088Z,38.90
2022-08-26T11:14:44.654Z,38.77
2022-08-26T11:17:56.333Z,38.75
2022-08-26T11:20:35.175Z,39.22
2022-08-26T11:23:37.910Z,39.87
2022-08-26T11:26:37.731Z,40.26
2022-08-26T11:29:11.978Z,40.87
2022-08-26T11:31:55.526Z,41.83
2022-08-26T11:34:52.444Z,42.07
2022-08-26T11:39:57.306Z,43.83
2022-08-26T11:42:36.091Z,44.60
2022-08-26T11:45:15.395Z,44.61
2022-08-26T11:47:43.199Z,44.96
2022-08-26T11:50:15.233Z,45.48
2022-08-26T11:52:51.971Z,45.47
2022-08-26T11:55:20.065Z,45.90
2022-08-26T11:57:56.813Z,45.49
2022-08-26T12:00:31.442Z,46.16
2022-08-26T12:03:07.638Z,46.21
2022-08-26T12:05:39.717Z,46.27
2022-08-26T12:08:10.062Z,46.91
2022-08-26T12:10:39.058Z,46.67
2022-08-26T12:13:10.079Z,46.44
2022-08-26T12:15:38.174Z,46.26
2022-08-26T12:18:28.912Z,45.71
2022-08-26T12:21:00.179Z,45.09
2022-08-26T12:23:40.153Z,45.10
2022-08-26T12:26:11.879Z,44.67
2022-08-26T12:28:50.691Z,44.16
2022-08-26T12:31:24.883Z,44.40
2022-08-26T12:33:56.296Z,43.83
2022-08-26T12:36:31.353Z,43.16
2022-08-26T12:39:08.479Z,43.39
2022-08-26T12:41:42.470Z,42.50
2022-08-26T12:44:39.129Z,43.09
2022-08-26T12:47:10.844Z,41.98
2022-08-26T12:49:39.924Z,42.75
2022-08-26T12:52:29.716Z,42.47
2022-08-26T12:55:00.024Z,42.68
2022-08-26T12:57:31.267Z,42.28
2022-08-26T13:00:32.983Z,41.55
2022-08-26T13:03:01.757Z,40.84
2022-08-26T13:05:34.066Z,41.12
2022-08-26T13:08:25.928Z,40.40
2022-08-26T13:11:05.239Z,39.92
2022-08-26T13:13:34.561Z,39.57
2022-08-26T13:16:04.058Z,38.85
2022-08-26T13:18:31.708Z,38.30
2022-08-26T13:20:59.447Z,37.92
2022-08-26T13:23:27.065Z,36.75
2022-08-26T13:25:54.690Z,36.89
2022-08-26T13:28:22.280Z,37.82
2022-08-26T13:30:49.956Z,37.79
2022-08-26T13:33:19.321Z,37.35
2022-08-26T13:35:48.135Z,37.60
2022-08-26T13:38:20.591Z,37.69
2022-08-26T13:41:02.652Z,36.92
2022-08-26T13:43:30.519Z,35.96
2022-08-26T13:45:58.195Z,35.40
2022-08-26T13:48:27.526Z,35.99
2022-08-26T13:50:55.368Z,36.95
2022-08-26T13:53:23.264Z,37.12
2022-08-26T13:55:51.007Z,37.24
2022-08-26T13:58:18.766Z,38.38
2022-08-26T14:00:46.542Z,38.09
2022-08-26T14:03:15.090Z,38.88
2022-08-26T14:05:44.132Z,38.43
2022-08-26T14:08:12.068Z,39.85
2022-08-26T14:10:39.777Z,41.40
2022-08-26T14:13:08.298Z,42.81
2022-08-26T14:15:38.949Z,44.02
2022-08-26T14:18:09.995Z,44.62
2022-08-26T14:20:39.193Z,44.68
2022-08-26T14:23:14.265Z,45.10
2022-08-26T14:25:42.356Z,45.47
2022-08-26T14:28:10.352Z,44.56
2022-08-26T14:30:40.852Z,44.03
2022-08-26T14:33:12.928Z,43.98
2022-08-26T14:35:47.935Z,44.06
2022-08-26T14:38:18.277Z,44.45
2022-08-26T14:40:46.373Z,44.21
2022-08-26T14:43:16.104Z,43.76
2022-08-26T14:45:45.701Z,44.06
2022-08-26T14:48:13.759Z,44.19
2022-08-26T14:50:41.954Z,44.84
2022-08-26T14:53:27.216Z,43.34
2022-08-26T14:55:56.227Z,42.85
2022-08-26T14:58:23.989Z,43.18
2022-08-26T15:00:51.623Z,43.32
2022-08-26T15:05:51.805Z,43.03
2022-08-26T15:08:20.716Z,42.65
2022-08-26T15:10:48.308Z,43.15
2022-08-26T15:13:17.750Z,42.81
2022-08-26T15:15:45.448Z,42.37
2022-08-26T15:18:13.188Z,42.57
2022-08-26T15:20:41.004Z,42.82
2022-08-26T15:23:08.792Z,42.91
2022-08-26T15:25:37.099Z,43.24
2022-08-26T15:28:06.180Z,43.75
2022-08-26T15:30:35.289Z,44.30
2022-08-26T15:33:03.249Z,45.11
2022-08-26T15:35:32.917Z,45.07
2022-08-26T15:38:03.099Z,45.58
2022-08-26T15:40:30.788Z,46.46
2022-08-26T15:43:17.885Z,46.75
2022-08-26T15:45:47.601Z,48.01
2022-08-26T15:48:16.241Z,47.83
2022-08-26T15:50:51.478Z,48.50
2022-08-26T15:53:19.300Z,48.62
2022-08-26T15:55:48.867Z,49.32
2022-08-26T15:58:17.910Z,49.29
2022-08-26T16:00:46.884Z,49.19
2022-08-26T16:03:14.612Z,49.47
2022-08-26T16:05:44.345Z,49.25
2022-08-26T16:08:12.431Z,49.12
2022-08-26T16:10:45.439Z,49.16
2022-08-26T16:13:17.378Z,48.92
2022-08-26T16:15:45.190Z,48.79
2022-08-26T16:18:15.394Z,48.91
2022-08-26T16:20:58.554Z,49.08
2022-08-26T16:23:38.314Z,48.97
2022-08-26T16:26:16.605Z,48.90
2022-08-26T16:28:51.064Z,48.51
2022-08-26T16:31:19.312Z,48.71
2022-08-26T16:33:48.560Z,48.89
2022-08-26T16:36:16.640Z,49.08
2022-08-26T16:38:50.279Z,49.22
2022-08-26T16:41:18.463Z,49.09
2022-08-26T16:43:46.587Z,49.20
2022-08-26T16:46:16.110Z,49.32
2022-08-26T16:48:45.131Z,49.42
2022-08-26T16:51:16.030Z,49.60
2022-08-26T16:53:44.293Z,49.97
2022-08-26T16:56:15.528Z,50.39
2022-08-26T16:58:43.470Z,49.98
2022-08-26T17:01:11.656Z,50.17
2022-08-26T17:03:39.547Z,50.17
2022-08-26T17:06:09.901Z,50.65
2022-08-26T17:08:39.724Z,51.49
2022-08-26T17:11:08.347Z,51.66
2022-08-26T17:13:37.989Z,51.44
2022-08-26T17:16:07.568Z,52.01
2022-08-26T17:18:37.043Z,52.25
2022-08-26T17:21:08.100Z,52.48
2022-08-26T17:23:37.032Z,52.73
2022-08-26T17:26:06.234Z,53.78
2022-08-26T17:28:34.577Z,53.83
2022-08-26T17:31:02.680Z,53.61
2022-08-26T17:33:30.878Z,54.38
2022-08-26T17:35:58.557Z,54.40
2022-08-26T17:38:29.162Z,54.17
2022-08-26T17:40:57.324Z,54.62
2022-08-26T17:43:27.671Z,54.60
2022-08-26T17:46:06.690Z,54.94
2022-08-26T17:48:35.589Z,55.97
2022-08-26T17:51:07.682Z,56.07
2022-08-26T17:53:35.496Z,56.06
2022-08-26T17:56:05.640Z,56.65
2022-08-26T17:58:37.733Z,56.32
2022-08-26T18:01:06.390Z,56.51
2022-08-26T18:03:35.083Z,57.14
2022-08-26T18:06:03.700Z,57.31
2022-08-26T18:08:31.322Z,56.55
2022-08-26T18:10:59.046Z,56.95
2022-08-26T18:13:26.928Z,57.51
2022-08-26T18:15:56.254Z,57.63
2022-08-26T18:18:23.932Z,57.33
2022-08-26T18:20:52.579Z,57.15
2022-08-26T18:23:31.483Z,57.64
2022-08-26T18:25:59.330Z,57.89
2022-08-26T18:28:26.973Z,58.50
2022-08-26T18:30:56.990Z,58.47
2022-08-26T18:33:25.537Z,58.14
2022-08-26T18:35:53.654Z,58.27
2022-08-26T18:38:21.196Z,58.51
2022-08-26T18:40:50.193Z,58.88
2022-08-26T18:43:17.878Z,58.90
2022-08-26T18:45:45.662Z,59.47
2022-08-26T18:48:14.920Z,59.72
2022-08-26T18:50:46.981Z,60.12
2022-08-26T18:53:15.610Z,60.52
2022-08-26T18:55:43.277Z,61.06
2022-08-26T18:58:11.648Z,62.02
2022-08-26T19:00:39.489Z,61.91
2022-08-26T19:03:08.308Z,61.96
2022-08-26T19:05:47.964Z,62.08
2022-08-26T19:08:15.531Z,62.38
2022-08-26T19:10:43.162Z,62.32
2022-08-26T19:13:11.241Z,61.82
2022-08-26T19:15:40.216Z,62.19
2022-08-26T19:18:08.548Z,62.01
2022-08-26T19:20:41.485Z,61.99
2022-08-26T19:23:30.563Z,62.43
2022-08-26T19:26:00.021Z,62.42
2022-08-26T19:28:27.627Z,61.77
2022-08-26T19:30:55.420Z,61.56
2022-08-26T19:33:23.168Z,61.61
2022-08-26T19:35:50.934Z,62.05
2022-08-26T19:38:20.170Z,61.39
2022-08-26T19:40:48.435Z,61.47
2022-08-26T19:43:16.210Z,61.44
2022-08-26T19:45:44.649Z,61.25
2022-08-26T19:48:12.296Z,61.32
2022-08-26T19:50:40.187Z,61.89
2022-08-26T19:53:07.821Z,61.76
2022-08-26T19:55:37.051Z,62.01
2022-08-26T19:58:04.936Z,61.83
2022-08-26T20:00:33.628Z,62.04
2022-08-26T20:03:01.484Z,61.82
2022-08-26T20:05:29.387Z,62.36
2022-08-26T20:07:57.107Z,62.63
2022-08-26T20:10:25.698Z,62.72
2022-08-26T20:12:54.747Z,62.30
2022-08-26T20:15:23.703Z,62.72
2022-08-26T20:17:51.548Z,62.69
2022-08-26T20:20:37.234Z,62.75
2022-08-26T20:23:06.115Z,62.76
2022-08-26T20:25:34.564Z,62.96
2022-08-26T20:28:03.936Z,63.10
2022-08-26T20:30:31.814Z,63.19
2022-08-26T20:32:59.489Z,63.61
2022-08-26T20:35:27.367Z,63.67
2022-08-26T20:37:54.980Z,62.99
2022-08-26T20:40:23.050Z,63.34
2022-08-26T20:42:50.725Z,63.06
2022-08-26T20:45:19.888Z,63.52
2022-08-26T20:47:47.531Z,64.25
2022-08-26T20:50:15.131Z,63.72
2022-08-26T20:52:42.755Z,64.03
2022-08-26T20:55:12.884Z,63.67
2022-08-26T20:57:43.164Z,63.89
2022-08-26T21:00:14.147Z,64.66
2022-08-26T21:02:44.094Z,64.43
2022-08-26T21:05:11.829Z,64.42
2022-08-26T21:07:39.527Z,64.12
2022-08-26T21:10:07.649Z,64.43
2022-08-26T21:12:36.247Z,64.57
2022-08-26T21:15:04.068Z,64.16
2022-08-26T21:17:32.276Z,64.17
2022-08-26T21:20:01.480Z,64.39
2022-08-26T21:22:30.238Z,64.77
2022-08-26T21:24:58.195Z,64.69
2022-08-26T21:27:26.523Z,64.18
2022-08-26T21:29:55.594Z,64.88
2022-08-26T21:32:23.333Z,64.89
2022-08-26T21:34:51.024Z,65.11
2022-08-26T21:37:20.020Z,64.51
2022-08-26T21:39:47.683Z,64.33
2022-08-26T21:42:15.646Z,64.44
2022-08-26T21:44:45.034Z,64.38
2022-08-26T21:47:20.717Z,65.03
2022-08-26T21:49:48.472Z,65.24
2022-08-26T21:52:16.330Z,64.73
2022-08-26T21:54:49.374Z,64.72
2022-08-26T21:57:17.653Z,64.89
2022-08-26T21:59:45.376Z,65.15
2022-08-26T22:02:13.273Z,65.13
2022-08-26T22:04:43.657Z,65.13
2022-08-26T22:07:14.601Z,65.53
2022-08-26T22:09:42.559Z,65.64
2022-08-26T22:12:16.007Z,65.70
2022-08-26T22:14:43.662Z,66.04
2022-08-26T22:17:11.389Z,65.91
2022-08-26T22:19:46.377Z,65.90
2022-08-26T22:22:14.991Z,66.29
2022-08-26T22:24:43.229Z,66.05
2022-08-26T22:27:11.924Z,66.13
2022-08-26T22:29:40.993Z,66.54
2022-08-26T22:32:09.382Z,66.75
2022-08-26T22:34:38.316Z,67.22
2022-08-26T22:37:06.408Z,67.26
2022-08-26T22:39:34.295Z,67.20
2022-08-26T22:42:02.526Z,67.32
2022-08-26T22:44:30.494Z,67.11
2022-08-26T22:47:01.223Z,67.95
2022-08-26T22:49:28.988Z,67.39
2022-08-26T22:51:56.597Z,67.12
2022-08-26T22:54:24.718Z,67.08
2022-08-26T22:56:52.311Z,66.87
2022-08-26T22:59:19.961Z,66.92
2022-08-26T23:01:47.695Z,66.36
2022-08-26T23:04:16.677Z,66.55
2022-08-26T23:06:47.567Z,66.31
2022-08-26T23:09:17.798Z,67.20
2022-08-26T23:11:47.162Z,67.16
2022-08-26T23:14:15.495Z,67.16
2022-08-26T23:16:43.447Z,67.21
2022-08-26T23:19:12.703Z,67.56
2022-08-26T23:21:41.933Z,67.33
2022-08-26T23:24:10.058Z,67.75
2022-08-26T23:26:38.497Z,67.51
2022-08-26T23:29:08.241Z,67.69
2022-08-26T23:31:37.538Z,67.99
2022-08-26T23:34:22.626Z,68.03
2022-08-26T23:36:53.892Z,68.59
2022-08-26T23:39:22.157Z,68.30
2022-08-26T23:41:49.821Z,68.83
2022-08-26T23:44:17.470Z,68.32
2022-08-26T23:46:45.049Z,68.24
2022-08-26T23:49:12.790Z,68.63
2022-08-26T23:51:58.019Z,68.91
2022-08-26T23:54:27.055Z,69.41
2022-08-26T23:56:54.689Z,69.01
2022-08-26T23:59:22.394Z,68.90
